Historyczne dane pomiarowe

Dodano dane terminowe – wersja testowa.

Dane z okresu 1951-2019

Wersja bazy: 1.34 [2019-03-16, lista zmian], aktualizacja planowana na 2019-04-15

Dane meteo z obszaru Polski uzyskane na podstawie danych udostępnionych przez Instytut Meteorologii i Gospodarki Wodnej – Państwowy Instytut Badawczy.

 

Wybierz Datę:    

       

TemperaturaWilgotnośćWiatrCiśnienieOpadyŚniegCzas trwania zjawisk
 Stacja t tx tn tng RH VA  wxwx mslp ppp RRR   cm mm wxwxwxwxwxwxwx
1961-08-14 13.2 18.0 6.7 2.7 86.5- 3.0 2.0---- 0.0------------
1961-08-13 13.3 18.0 10.0 6.2 95.5- 8.0 3.3---- 9.0------------
1961-08-12 19.3 24.0 15.1 9.6 88.5- 6.7 3.0---- 21.5------------
1961-08-11 25.5 32.7 16.9 11.2 73.0- 2.7 3.0---- 1.0------------
1961-08-10 21.5 26.9 15.8 10.2 92.8- 3.7 3.3---- 12.7------------
1961-08-09 21.3 28.4 12.7 9.2 84.5- 2.0 1.7---- 36.8------------
1961-08-08 20.0 26.2 15.5 9.0 66.3- 6.3 3.0---- 3.3------------
1961-08-07 23.9 30.2 13.3 5.1 64.5- 2.3 4.7---- 0.0------------
1961-08-06 21.6 28.8 10.2 2.1 74.0- 0.7 2.3---- 0.0------------
1961-08-05 16.7 22.6 11.5 6.5 84.0- 4.7 2.7---- 0.0------------
1961-08-04 16.0 22.6 11.0 5.5 79.8- 4.7 3.0---- 0.0------------
1961-08-03 18.3 25.2 7.5 4.7 79.8- 4.0 2.7---- 5.8------------
1961-08-02 17.5 24.4 7.1 3.9 75.8- 3.7 2.7---- 0.0------------
1961-08-01 14.9 21.2 9.2 1.5 80.0- 3.3 3.3---- 0.0------------
1961-07-31 13.3 20.9 9.5- 88.0- 5.0 3.3---- 0.9------------
1961-07-30 13.6 19.0 10.4- 95.8- 8.0 3.3---- 16.6------------
1961-07-29 16.4 25.7 11.2- 85.0- 6.7 4.3---- 34.3------------
1961-07-28 20.3 28.2 15.1- 78.0- 6.7 2.7---- 1.5------------
1961-07-27 20.9 26.8 11.6- 63.0- 6.7 4.0---- 0.0------------
1961-07-26 15.8 20.6 7.1- 70.5- 6.7 2.3---- 0.0------------
1961-07-25 13.5 18.4 9.7- 83.3- 6.0 2.3---- 0.0------------
1961-07-24 14.3 18.7 8.1- 79.5- 8.0 2.3---- 0.0------------
1961-07-23 15.5 20.4 9.0- 80.8- 6.0 2.3---- 0.0------------
1961-07-22 14.4 18.6 10.2- 85.8- 5.3 3.7---- 3.0------------
1961-07-21 15.7 20.9 10.8- 79.0- 7.3 3.7---- 0.7------------
1961-07-20 16.7 22.6 6.9- 81.3- 5.3 2.7---- 14.2------------
1961-07-19 15.2 22.6 4.5- 79.3- 4.3 2.3---- 13.2------------
1961-07-18 13.9 21.0 9.1- 77.5- 2.7 2.0---- 0.0------------
1961-07-17 15.5 23.0 10.5- 86.5- 6.3 2.0---- 1.3------------
1961-07-16 18.5 27.0 8.7- 68.3- 3.0 3.3---- 0.4------------
1961-07-15 19.2 26.2 4.8- 63.3- 4.0 2.7---- 0.0------------
1961-07-14 14.4 23.0 11.2- 86.8- 5.3 3.7---- 0.0------------
1961-07-13 23.8 28.9 10.4- 59.0- 3.3 3.3---- 0.3------------
1961-07-12 19.0 27.0 7.9- 74.0- 6.7 2.0---- 0.0------------
1961-07-11 15.6 21.2 7.9- 63.8- 6.0 2.7---- 0.0------------
1961-07-10 14.7 19.9 10.7- 74.3- 6.7 3.3---- 0.0------------
1961-07-09 16.9 23.4 4.8- 64.8- 4.7 3.0---- 2.4------------
1961-07-08 13.5 20.8 5.1- 75.0- 1.3 1.0---- 0.0------------
1961-07-07 12.7 22.0 7.5- 80.0- 4.0 3.0---- 0.0------------
1961-07-06 13.6 24.9 9.2- 72.8- 2.7 3.3---- 0.0------------
1961-07-05 15.9 21.2 11.7- 76.5- 7.3 3.3---- 2.2------------
1961-07-04 23.3 31.6 12.2- 63.3- 3.3 3.7---- 2.3------------
1961-07-03 22.3 30.6 9.5- 61.8- 0.3 2.3---- 0.0------------
1961-07-02 19.3 26.6 10.7- 69.0- 0.3 2.7---- 0.0------------
1961-07-01 18.3 25.9 11.2- 72.5- 1.0 2.7---- 0.0------------
1961-06-30 17.3 22.9 8.1 5.3 69.8- 1.7 2.7---- 0.0------------
1961-06-29 15.4 20.2 6.9 4.1 72.0- 6.7 3.0---- 0.0------------
1961-06-28 15.6 27.4 10.8 13.0 82.8- 4.7 3.3---- 0.8------------
1961-06-27 24.2 30.9 13.3 14.0 63.0- 2.7 2.7---- 0.0------------
1961-06-26 21.8 30.9 17.3 14.0 73.3- 4.0 4.0---- 5.0------------
1961-06-25 22.1 28.6 9.2 7.0 61.3- 2.0 3.3---- 0.0------------
1961-06-24 19.1 24.9 12.0 9.2 65.0- 3.7 3.3---- 0.0------------
1961-06-23 16.5 21.7 10.2 7.6 87.0- 6.3 3.3---- 3.5------------
1961-06-22 16.3 22.7 9.2 7.0 72.3- 1.3 3.0---- 0.0------------
1961-06-21 15.8 22.9 4.2 2.3 68.3- 1.7 2.7---- 0.0------------
1961-06-20 14.5 20.2 10.0 7.2 68.0- 1.7 3.0---- 0.0------------
1961-06-19 21.1 28.2 15.1 12.2 74.3- 5.7 3.7---- 0.0------------
1961-06-18 18.1 24.4 7.5 5.3 68.0- 3.0 2.7---- 0.0------------
1961-06-17 14.0 21.4 6.4 4.4 81.0- 3.0 2.7---- 0.0------------
1961-06-16 12.8 17.6 7.1 5.1 80.8- 2.7 2.3---- 0.0------------
303.3 ms

 

Źródłem pochodzenia danych jest Instytut Meteorologii i Gospodarki Wodnej – Państwowy Instytut Badawczy. Dane Instytutu Meteorologii i Gospodarki Wodnej – Państwowego Instytutu Badawczego zostały przetworzone.

Dane źródłowe można odnaleźć na stronie https://dane.imgw.pl